Old Willapa, Washington
Current Conditions -  °F | °C
As of 4:03 AM on Thursday 27 Nov 2014 (Local Time) from KHQM Reporting Station
Light Rain Light Rain  
Wind Chill: 55°   Ceiling: 700
Heat Index: 55°   Visibility: 3mi
Dew Point: 55°   Wind: 13mph
Humidity: 100%   Direction: 180°S
Pressure: 29.85"   Gusts: NA
Location:  46.6563°N, 123.58°W
Report Text: KHQM 271203Z AUTO 18011KT 3SM -RA BR OVC007 13/13 A2985 RMK AO2 CIG 004V009 P0001 T01280128
Loading
Personal Weather Stations






























Interactive Weather Map New forecast layout! Learn more

10-Day Weather Forecast

Advertisements
Track Severe Weather on mobile